Time;durP1;ratioP1;P1;durP2;ratioP2;P2;SDS_P1;SDS_P2;PMS_P1;PMS_P2;Temp;Humidity;BMP_temperature;BMP_pressure;BME280_temperature;BME280_humidity;BME280_pressure;Samples;Min_cycle;Max_cycle;Signal;HPM_P1;HPM_P2
2023/03/22 00:00:26;;;;;;;2.20;1.52;;;16.90;57.50;;;;;;5054911;28;20217;-59
2023/03/22 00:02:52;;;;;;;1.75;1.65;;;16.90;57.50;;;;;;5053576;28;20175;-58
2023/03/22 00:05:17;;;;;;;2.13;1.70;;;16.90;57.50;;;;;;5054650;28;20203;-59
2023/03/22 00:07:43;;;;;;;2.28;1.75;;;16.90;57.50;;;;;;5054223;28;20534;-57
2023/03/22 00:10:10;;;;;;;1.70;1.42;;;16.90;57.50;;;;;;5053609;28;20717;-58
2023/03/22 00:12:35;;;;;;;1.88;1.63;;;16.80;57.50;;;;;;5054362;28;20186;-58
2023/03/22 00:15:01;;;;;;;2.50;1.48;;;16.80;58.10;;;;;;5054141;28;20562;-58
2023/03/22 00:17:27;;;;;;;1.40;1.30;;;16.80;57.50;;;;;;5053564;28;20206;-58
2023/03/22 00:19:53;;;;;;;1.52;1.30;;;16.80;57.50;;;;;;5053879;28;20269;-57
2023/03/22 00:22:19;;;;;;;2.90;1.33;;;16.80;57.50;;;;;;5054148;28;20179;-58
2023/03/22 00:24:45;;;;;;;1.38;1.27;;;16.80;57.50;;;;;;5053082;28;20186;-57
2023/03/22 00:27:10;;;;;;;2.20;1.20;;;16.80;57.40;;;;;;5054186;28;20172;-57
2023/03/22 00:29:36;;;;;;;3.00;1.90;;;16.80;57.40;;;;;;5054011;28;20207;-58
2023/03/22 00:32:03;;;;;;;1.98;1.60;;;16.80;57.40;;;;;;5053061;28;20186;-58
2023/03/22 00:34:31;;;;;;;1.52;1.27;;;16.80;57.40;;;;;;5054030;28;20254;-58
2023/03/22 00:36:57;;;;;;;2.28;1.52;;;16.80;57.40;;;;;;5053760;28;20178;-58
2023/03/22 00:39:23;;;;;;;2.65;1.40;;;16.80;57.40;;;;;;5053080;28;20179;-58
2023/03/22 00:41:48;;;;;;;1.45;1.17;;;16.80;57.40;;;;;;5053730;28;20511;-59
2023/03/22 00:44:14;;;;;;;1.40;1.30;;;16.70;57.40;;;;;;5053952;28;20183;-59
2023/03/22 00:46:39;;;;;;;1.50;1.38;;;16.70;57.40;;;;;;5052954;28;20225;-58
2023/03/22 00:49:05;;;;;;;1.65;1.50;;;16.80;57.40;;;;;;5053422;28;20214;-58
2023/03/22 00:51:30;;;;;;;2.17;1.67;;;16.70;57.30;;;;;;5053095;28;20215;-59
2023/03/22 00:53:56;;;;;;;2.47;1.55;;;16.70;57.30;;;;;;5053241;28;20185;-56
2023/03/22 00:56:24;;;;;;;1.77;1.35;;;16.70;57.30;;;;;;5053846;28;20179;-58
2023/03/22 00:58:49;;;;;;;1.75;1.33;;;16.70;57.30;;;;;;5052792;28;20487;-58
2023/03/22 01:01:15;;;;;;;1.40;1.30;;;16.70;57.30;;;;;;5053443;28;20586;-58
2023/03/22 01:03:41;;;;;;;1.60;1.20;;;16.70;57.30;;;;;;5053461;28;20182;-59
2023/03/22 01:06:07;;;;;;;1.85;1.52;;;16.70;57.30;;;;;;5051778;28;20175;-57
2023/03/22 01:08:37;;;;;;;2.25;1.48;;;16.70;57.30;;;;;;5053160;28;20190;-58
2023/03/22 01:11:03;;;;;;;1.45;1.30;;;16.70;57.30;;;;;;5052979;28;20270;-58
2023/03/22 01:13:29;;;;;;;2.25;1.63;;;16.70;57.30;;;;;;5052453;28;20652;-57
2023/03/22 01:15:54;;;;;;;1.98;1.40;;;16.70;57.30;;;;;;5052913;28;20183;-58
2023/03/22 01:18:20;;;;;;;2.03;1.48;;;16.70;57.20;;;;;;5053279;28;20281;-58
2023/03/22 01:20:46;;;;;;;1.60;1.48;;;16.70;57.30;;;;;;5052035;28;20223;-58
2023/03/22 01:23:11;;;;;;;1.95;1.15;;;16.70;57.30;;;;;;5053050;28;20313;-57
2023/03/22 01:25:37;;;;;;;1.45;1.33;;;16.70;57.30;;;;;;5052996;28;20313;-56
2023/03/22 01:28:02;;;;;;;2.38;1.10;;;16.60;57.20;;;;;;5052226;28;20217;-57
2023/03/22 01:30:28;;;;;;;1.50;1.40;;;16.70;57.20;;;;;;5052908;28;20634;-58
2023/03/22 01:32:54;;;;;;;2.08;1.40;;;16.60;57.20;;;;;;5052540;28;20633;-58
2023/03/22 01:35:19;;;;;;;1.40;1.10;;;16.70;57.20;;;;;;5052253;28;20171;-57
2023/03/22 01:37:45;;;;;;;2.53;1.20;;;16.60;57.20;;;;;;5052398;28;20184;-58
2023/03/22 01:40:12;;;;;;;2.42;1.25;;;16.60;57.20;;;;;;5053018;28;20726;-58
2023/03/22 01:42:38;;;;;;;2.08;1.65;;;16.60;57.20;;;;;;5052160;28;20253;-58
2023/03/22 01:45:12;;;;;;;1.45;1.15;;;16.60;57.20;;;;;;5052515;28;20278;-58
2023/03/22 01:48:09;;;;;;;1.70;1.45;;;16.60;57.20;;;;;;5052741;28;20175;-58
2023/03/22 01:50:36;;;;;;;2.35;1.45;;;16.60;57.20;;;;;;5044149;28;20218;-58
2023/03/22 01:53:03;;;;;;;1.50;1.40;;;16.60;57.20;;;;;;5034945;28;20179;-58
2023/03/22 01:55:29;;;;;;;1.38;1.27;;;16.70;57.20;;;;;;5052022;28;20210;-57
2023/03/22 01:57:55;;;;;;;1.88;1.40;;;16.60;57.10;;;;;;5052488;28;20203;-57
2023/03/22 02:00:21;;;;;;;1.40;1.30;;;16.60;57.10;;;;;;5051322;28;20536;-58
2023/03/22 02:02:48;;;;;;;1.70;1.27;;;16.60;57.20;;;;;;5050117;28;20205;-59
2023/03/22 02:05:14;;;;;;;1.55;1.35;;;16.60;57.20;;;;;;5051438;28;20181;-57
2023/03/22 02:07:40;;;;;;;1.40;1.20;;;16.60;57.10;;;;;;5052517;28;20265;-57
2023/03/22 02:10:14;;;;;;;2.05;1.40;;;16.60;57.20;;;;;;5051437;28;20214;-56
2023/03/22 02:13:06;;;;;;;1.40;1.30;;;16.60;57.10;;;;;;5052410;28;20190;-55
2023/03/22 02:15:39;;;;;;;1.85;1.52;;;16.60;57.10;;;;;;5052510;28;20175;-58
2023/03/22 02:18:20;;;;;;;1.77;1.30;;;16.60;57.10;;;;;;5049748;28;20181;-57
2023/03/22 02:20:59;;;;;;;1.48;1.30;;;16.50;57.10;;;;;;5035710;28;20309;-55
2023/03/22 02:23:56;;;;;;;1.58;1.40;;;16.50;57.10;;;;;;5050354;28;20181;-55
2023/03/22 02:26:59;;;;;;;1.52;1.42;;;16.60;57.10;;;;;;5052356;28;20171;-57
2023/03/22 02:29:35;;;;;;;1.80;1.30;;;16.60;57.20;;;;;;5051187;28;20198;-57
2023/03/22 02:32:32;;;;;;;1.48;1.40;;;16.50;57.10;;;;;;5049869;28;20697;-58
2023/03/22 02:35:56;;;;;;;1.60;1.20;;;16.50;57.10;;;;;;5050963;28;20185;-58
2023/03/22 02:38:45;;;;;;;2.63;1.48;;;16.50;57.70;;;;;;5001711;28;20187;-57
2023/03/22 02:41:26;;;;;;;2.97;1.50;;;16.50;57.10;;;;;;5050908;28;20524;-58
2023/03/22 02:44:00;;;;;;;3.05;1.45;;;16.50;57.10;;;;;;5050754;28;20194;-58
2023/03/22 02:46:38;;;;;;;1.63;1.52;;;16.50;57.10;;;;;;5050640;28;20542;-58
2023/03/22 02:49:12;;;;;;;2.28;1.65;;;16.50;57.10;;;;;;5050670;28;20218;-56
2023/03/22 02:51:42;;;;;;;2.15;1.55;;;16.50;57.10;;;;;;5034522;28;20183;-56
2023/03/22 02:54:21;;;;;;;2.38;1.80;;;16.50;57.10;;;;;;5050873;28;20179;-57
2023/03/22 02:56:55;;;;;;;1.95;1.73;;;16.50;57.10;;;;;;5050414;28;20175;-58
2023/03/22 02:59:21;;;;;;;2.78;1.75;;;16.50;57.10;;;;;;5034722;28;20178;-57
2023/03/22 03:01:51;;;;;;;1.60;1.50;;;16.50;57.10;;;;;;5034099;28;20171;-58
2023/03/22 03:04:18;;;;;;;1.95;1.77;;;16.50;57.30;;;;;;5034336;28;20183;-58
2023/03/22 03:06:46;;;;;;;2.60;1.50;;;16.40;57.10;;;;;;5033292;28;20177;-59
2023/03/22 03:09:12;;;;;;;1.90;1.67;;;16.50;57.10;;;;;;5034315;28;20207;-57
2023/03/22 03:11:38;;;;;;;2.30;1.77;;;16.50;57.10;;;;;;5050511;28;20206;-56
2023/03/22 03:14:03;;;;;;;1.85;1.70;;;16.40;57.10;;;;;;5050931;28;20202;-55
2023/03/22 03:16:33;;;;;;;1.75;1.50;;;16.50;57.10;;;;;;5051947;28;20183;-58
2023/03/22 03:19:20;;;;;;;2.78;2.17;;;16.50;57.10;;;;;;5050215;28;20242;-57
2023/03/22 03:22:07;;;;;;;3.25;1.70;;;16.40;57.10;;;;;;5050312;28;20182;-58
2023/03/22 03:24:49;;;;;;;2.50;1.90;;;16.40;57.10;;;;;;5050966;28;20312;-57
2023/03/22 03:27:18;;;;;;;2.58;2.20;;;16.40;57.10;;;;;;5049931;28;20226;-56
2023/03/22 03:29:53;;;;;;;2.35;2.15;;;16.40;57.10;;;;;;5053457;28;20234;-57
2023/03/22 03:32:24;;;;;;;1.83;1.73;;;16.40;57.10;;;;;;5054153;28;20645;-58
2023/03/22 03:35:02;;;;;;;2.10;1.95;;;16.40;57.70;;;;;;5054223;28;20237;-58
2023/03/22 03:37:29;;;;;;;1.90;1.80;;;16.40;57.10;;;;;;5054024;28;20203;-58
2023/03/22 03:40:09;;;;;;;1.80;1.70;;;16.40;57.10;;;;;;5053789;28;20179;-58
2023/03/22 03:42:37;;;;;;;2.17;1.50;;;16.40;57.10;;;;;;5053232;28;20167;-58
2023/03/22 03:45:02;;;;;;;2.22;1.70;;;16.40;57.10;;;;;;5053497;28;20187;-59
2023/03/22 03:47:28;;;;;;;1.95;1.80;;;16.40;57.10;;;;;;5036538;28;20532;-59
2023/03/22 03:49:54;;;;;;;2.33;1.85;;;16.40;57.10;;;;;;5054795;28;20211;-57
2023/03/22 03:52:23;;;;;;;1.98;1.80;;;16.40;57.10;;;;;;5054907;28;20199;-60
2023/03/22 03:54:49;;;;;;;2.90;1.80;;;16.40;57.10;;;;;;5054023;28;20175;-57
2023/03/22 03:57:15;;;;;;;2.35;1.67;;;16.40;57.70;;;;;;5054766;28;20202;-59
2023/03/22 03:59:40;;;;;;;1.60;1.50;;;16.40;57.10;;;;;;5055083;28;20512;-60
2023/03/22 04:02:06;;;;;;;2.00;1.80;;;16.40;57.10;;;;;;5053768;28;20626;-59
2023/03/22 04:04:33;;;;;;;2.03;1.80;;;16.30;57.10;;;;;;5054552;28;20182;-59
2023/03/22 04:06:59;;;;;;;1.80;1.70;;;16.40;57.10;;;;;;5054429;28;20603;-58
2023/03/22 04:09:30;;;;;;;2.53;1.75;;;16.40;57.10;;;;;;5053752;28;20210;-55
2023/03/22 04:11:55;;;;;;;1.85;1.60;;;16.30;57.10;;;;;;5054259;28;20168;-57
2023/03/22 04:14:21;;;;;;;2.42;1.52;;;16.30;57.10;;;;;;5054589;28;20320;-58
2023/03/22 04:16:47;;;;;;;3.08;1.90;;;16.30;57.10;;;;;;5053580;28;20175;-58
2023/03/22 04:19:12;;;;;;;2.97;2.00;;;16.30;57.10;;;;;;5054261;28;20390;-58
2023/03/22 04:21:39;;;;;;;2.35;2.05;;;16.30;57.10;;;;;;5054360;28;20301;-57
2023/03/22 04:24:05;;;;;;;2.72;1.83;;;16.30;57.10;;;;;;5053198;28;20266;-57
2023/03/22 04:26:30;;;;;;;2.55;1.70;;;16.30;57.10;;;;;;5054122;28;20190;-58
2023/03/22 04:28:57;;;;;;;1.67;1.58;;;16.40;57.10;;;;;;5053797;28;20207;-57
2023/03/22 04:31:23;;;;;;;1.90;1.67;;;16.30;57.10;;;;;;5053602;28;20177;-57
2023/03/22 04:33:53;;;;;;;1.75;1.65;;;16.30;57.10;;;;;;5053749;28;20183;-58
2023/03/22 04:36:19;;;;;;;3.35;1.95;;;16.30;57.10;;;;;;5054148;28;20171;-58
2023/03/22 04:38:45;;;;;;;1.83;1.67;;;16.30;57.10;;;;;;5053039;28;20205;-56
2023/03/22 04:41:10;;;;;;;1.60;1.48;;;16.30;57.10;;;;;;5053948;28;20171;-58
2023/03/22 04:43:38;;;;;;;2.17;1.40;;;16.30;57.10;;;;;;5053185;28;20258;-58
2023/03/22 04:46:08;;;;;;;1.60;1.50;;;16.30;57.10;;;;;;5053740;28;20187;-59
2023/03/22 04:48:36;;;;;;;1.55;1.45;;;16.30;57.10;;;;;;5053790;28;20237;-57
2023/03/22 04:51:03;;;;;;;1.85;1.67;;;16.30;57.10;;;;;;5052739;28;20248;-58
2023/03/22 04:53:29;;;;;;;1.38;1.27;;;16.30;57.10;;;;;;5053663;28;20179;-57
2023/03/22 04:55:58;;;;;;;1.70;1.60;;;16.30;57.10;;;;;;5053274;28;20214;-57
2023/03/22 04:58:24;;;;;;;3.38;1.73;;;16.30;57.10;;;;;;5053241;28;20179;-57
2023/03/22 05:00:51;;;;;;;2.08;1.90;;;16.20;57.00;;;;;;5053372;28;20178;-57
2023/03/22 05:03:19;;;;;;;2.17;1.75;;;16.20;57.60;;;;;;5053587;28;20232;-58
2023/03/22 05:05:55;;;;;;;2.53;2.00;;;16.20;57.00;;;;;;5052612;28;20179;-57
2023/03/22 05:08:21;;;;;;;2.17;1.63;;;16.30;57.10;;;;;;5053592;28;20177;-57
2023/03/22 05:10:47;;;;;;;1.70;1.60;;;16.20;57.00;;;;;;5053300;28;20215;-56
2023/03/22 05:13:12;;;;;;;1.70;1.30;;;16.20;57.00;;;;;;5052780;28;20174;-55
2023/03/22 05:15:38;;;;;;;2.40;1.58;;;16.20;57.00;;;;;;5053118;28;20183;-56
2023/03/22 05:18:04;;;;;;;2.03;1.83;;;16.30;57.10;;;;;;5052881;28;20246;-57
2023/03/22 05:20:29;;;;;;;2.25;1.50;;;16.30;57.10;;;;;;5052381;28;20335;-57
2023/03/22 05:22:55;;;;;;;2.97;1.90;;;16.20;57.10;;;;;;5052747;28;20173;-55
2023/03/22 05:25:21;;;;;;;2.03;1.48;;;16.20;57.00;;;;;;5053301;28;20271;-56
2023/03/22 05:27:49;;;;;;;1.90;1.50;;;16.20;57.00;;;;;;5052114;28;20659;-57
2023/03/22 05:30:15;;;;;;;1.52;1.42;;;16.20;57.00;;;;;;5053080;28;20217;-58
2023/03/22 05:32:42;;;;;;;2.47;1.75;;;16.20;57.00;;;;;;5053105;28;20230;-58
2023/03/22 05:35:08;;;;;;;1.80;1.45;;;16.20;57.20;;;;;;5052139;28;20601;-56
2023/03/22 05:37:34;;;;;;;1.83;1.48;;;16.20;57.00;;;;;;5053070;28;20167;-55
2023/03/22 05:40:00;;;;;;;1.58;1.48;;;16.20;57.00;;;;;;5052019;28;20641;-57
2023/03/22 05:42:25;;;;;;;1.48;1.38;;;16.20;57.00;;;;;;5052908;28;20175;-58
2023/03/22 05:44:51;;;;;;;1.80;1.55;;;16.20;57.60;;;;;;5052468;28;20204;-58
2023/03/22 05:47:16;;;;;;;1.60;1.50;;;16.10;57.00;;;;;;5051955;28;20210;-58
2023/03/22 05:49:42;;;;;;;1.40;1.30;;;16.20;57.00;;;;;;5052343;28;20203;-58
2023/03/22 05:52:07;;;;;;;2.78;1.63;;;16.20;57.00;;;;;;5052121;28;20535;-56
2023/03/22 05:54:33;;;;;;;1.85;1.48;;;16.20;57.00;;;;;;5052161;28;20197;-57
2023/03/22 05:56:59;;;;;;;2.22;1.63;;;16.20;57.00;;;;;;5052395;28;20617;-57
2023/03/22 05:59:24;;;;;;;2.40;1.33;;;16.20;57.00;;;;;;5052630;28;20222;-58
2023/03/22 06:01:50;;;;;;;2.17;1.55;;;16.20;57.00;;;;;;5051735;28;20179;-59
2023/03/22 06:04:19;;;;;;;2.00;1.45;;;16.10;56.90;;;;;;5052499;28;20175;-59
2023/03/22 06:06:45;;;;;;;1.67;1.40;;;16.10;57.00;;;;;;5052211;28;20220;-58
2023/03/22 06:09:14;;;;;;;1.98;1.50;;;16.20;57.00;;;;;;5051369;28;20611;-56
2023/03/22 06:11:39;;;;;;;2.00;1.40;;;16.20;57.00;;;;;;5052141;28;20622;-58
2023/03/22 06:14:05;;;;;;;1.65;1.48;;;16.10;57.00;;;;;;5052022;28;20221;-55
2023/03/22 06:16:30;;;;;;;2.47;1.48;;;16.10;57.00;;;;;;5051613;28;20209;-57
2023/03/22 06:18:56;;;;;;;1.58;1.30;;;16.10;57.00;;;;;;5051760;28;20254;-57
2023/03/22 06:21:21;;;;;;;1.95;1.50;;;16.10;57.00;;;;;;5052178;28;20258;-58
2023/03/22 06:23:47;;;;;;;1.55;1.23;;;16.10;57.00;;;;;;5051116;28;20171;-56
2023/03/22 06:26:12;;;;;;;2.13;1.40;;;16.10;57.00;;;;;;5052254;28;20187;-58
2023/03/22 06:28:38;;;;;;;1.88;1.55;;;16.10;57.00;;;;;;5052152;28;20167;-57
2023/03/22 06:31:07;;;;;;;2.33;1.52;;;16.10;57.00;;;;;;5051142;28;20254;-57
2023/03/22 06:33:34;;;;;;;1.45;1.23;;;16.10;57.00;;;;;;5052264;28;20175;-58
2023/03/22 06:36:00;;;;;;;1.45;1.20;;;16.10;57.00;;;;;;5051914;28;20182;-57
2023/03/22 06:38:26;;;;;;;1.90;1.42;;;16.10;57.00;;;;;;5051358;28;20171;-58
2023/03/22 06:40:52;;;;;;;1.73;1.17;;;16.10;57.00;;;;;;5051703;28;20594;-58
2023/03/22 06:43:18;;;;;;;2.42;1.38;;;16.10;57.00;;;;;;5051323;28;20179;-59
2023/03/22 06:45:45;;;;;;;1.50;1.30;;;16.10;57.10;;;;;;5051695;28;20196;-58
2023/03/22 06:48:11;;;;;;;1.60;1.17;;;16.10;57.00;;;;;;5052011;28;20528;-58
2023/03/22 06:50:37;;;;;;;1.50;1.38;;;16.10;57.00;;;;;;5051043;28;20677;-58
2023/03/22 06:53:04;;;;;;;2.53;1.50;;;16.10;57.00;;;;;;5051603;28;20179;-56
2023/03/22 06:55:33;;;;;;;2.33;1.25;;;16.10;57.00;;;;;;5052060;28;20175;-56
2023/03/22 06:57:59;;;;;;;1.70;1.10;;;16.00;57.00;;;;;;5050823;28;20634;-58
2023/03/22 07:00:25;;;;;;;2.55;1.50;;;16.10;57.00;;;;;;5051895;28;20183;-58
2023/03/22 07:02:50;;;;;;;1.77;1.17;;;16.10;57.00;;;;;;5051524;28;20241;-58
2023/03/22 07:05:16;;;;;;;1.60;1.15;;;16.10;56.90;;;;;;5054455;28;20215;-58
2023/03/22 07:07:41;;;;;;;2.33;1.38;;;16.20;56.80;;;;;;5055545;28;20625;-57
2023/03/22 07:10:07;;;;;;;1.92;1.30;;;16.20;56.70;;;;;;5055473;28;20217;-57
2023/03/22 07:12:33;;;;;;;1.65;1.55;;;16.30;56.80;;;;;;5055015;28;20171;-55
2023/03/22 07:14:58;;;;;;;2.03;1.33;;;16.40;56.60;;;;;;5054954;28;20183;-58
2023/03/22 07:17:24;;;;;;;1.33;1.17;;;16.40;56.50;;;;;;5055374;28;20199;-57
2023/03/22 07:19:49;;;;;;;3.38;1.35;;;16.50;56.50;;;;;;5054369;28;20283;-57
2023/03/22 07:22:15;;;;;;;1.25;1.15;;;16.60;56.30;;;;;;5055582;28;20634;-58
2023/03/22 07:24:41;;;;;;;1.23;0.95;;;16.70;56.80;;;;;;5055563;28;20661;-58
2023/03/22 07:27:06;;;;;;;2.80;1.50;;;16.80;56.10;;;;;;5054620;28;20636;-57
2023/03/22 07:29:32;;;;;;;2.42;1.40;;;16.90;56.00;;;;;;5055304;28;20199;-57
2023/03/22 07:31:57;;;;;;;1.58;1.00;;;16.90;55.80;;;;;;5054808;28;20179;-57
2023/03/22 07:34:23;;;;;;;1.60;1.10;;;17.00;55.70;;;;;;5054730;28;20258;-58
2023/03/22 07:36:49;;;;;;;1.85;1.42;;;17.10;55.60;;;;;;5055080;28;20262;-58
2023/03/22 07:39:14;;;;;;;1.80;1.27;;;17.10;55.50;;;;;;5055409;28;20262;-58
2023/03/22 07:41:40;;;;;;;2.53;1.17;;;17.20;55.40;;;;;;5054189;28;20540;-58
2023/03/22 07:44:05;;;;;;;1.70;1.10;;;17.20;55.30;;;;;;5054683;28;20701;-56
2023/03/22 07:46:31;;;;;;;1.35;1.23;;;17.20;55.40;;;;;;5054139;28;20205;-58
2023/03/22 07:48:57;;;;;;;1.23;0.93;;;17.10;55.40;;;;;;5054589;28;20253;-58
2023/03/22 07:51:22;;;;;;;1.67;1.20;;;17.20;55.50;;;;;;5055040;28;20202;-58
2023/03/22 07:53:48;;;;;;;3.20;1.30;;;17.20;55.40;;;;;;5053760;28;20258;-56
2023/03/22 07:56:13;;;;;;;3.80;1.52;;;17.20;55.40;;;;;;5054962;28;20179;-57
2023/03/22 07:58:39;;;;;;;1.30;1.20;;;17.20;55.30;;;;;;5054676;28;20517;-58
2023/03/22 08:01:07;;;;;;;1.88;1.30;;;17.30;55.30;;;;;;5053689;28;20697;-58
2023/03/22 08:03:34;;;;;;;1.20;1.00;;;17.20;55.30;;;;;;5054531;28;20687;-58
2023/03/22 08:06:03;;;;;;;3.17;1.15;;;17.20;55.30;;;;;;5054320;28;20187;-58
2023/03/22 08:08:28;;;;;;;1.63;1.25;;;17.20;55.40;;;;;;5053951;28;20179;-69
2023/03/22 08:10:54;;;;;;;1.65;1.08;;;17.20;55.70;;;;;;5054173;28;20599;-68
2023/03/22 08:13:19;;;;;;;1.50;1.00;;;17.10;55.60;;;;;;5054339;28;20167;-68
2023/03/22 08:15:45;;;;;;;1.15;0.90;;;17.10;55.70;;;;;;5052745;28;20224;-67
2023/03/22 08:18:10;;;;;;;4.93;1.50;;;17.10;56.00;;;;;;5054331;28;20325;-66
2023/03/22 08:20:36;;;;;;;2.35;1.40;;;17.10;56.00;;;;;;5054010;28;20305;-66
2023/03/22 08:23:02;;;;;;;3.03;1.23;;;17.10;56.10;;;;;;5053523;28;20255;-65
2023/03/22 08:25:28;;;;;;;1.33;1.10;;;17.10;56.30;;;;;;5054096;28;20175;-66
2023/03/22 08:27:57;;;;;;;1.83;1.10;;;17.00;56.20;;;;;;5053620;28;20544;-66
2023/03/22 08:30:28;;;;;;;1.83;1.25;;;17.00;56.50;;;;;;5053277;28;20257;-66
2023/03/22 08:32:54;;;;;;;3.47;1.90;;;17.00;56.40;;;;;;5053595;28;20206;-66
2023/03/22 08:35:19;;;;;;;2.83;1.42;;;17.00;56.70;;;;;;5054082;28;20646;-66
2023/03/22 08:37:45;;;;;;;3.58;1.33;;;17.00;56.70;;;;;;5052875;28;20630;-65
2023/03/22 08:40:11;;;;;;;1.73;1.30;;;17.00;56.70;;;;;;5053800;28;20167;-64
2023/03/22 08:42:37;;;;;;;3.35;1.13;;;17.00;56.70;;;;;;5053762;28;20592;-65
2023/03/22 08:45:03;;;;;;;2.65;1.30;;;17.00;56.70;;;;;;5052957;28;20691;-65
2023/03/22 08:47:28;;;;;;;6.38;1.33;;;17.00;56.70;;;;;;5053965;28;20249;-66
2023/03/22 08:49:54;;;;;;;2.85;1.40;;;17.00;56.70;;;;;;5052897;28;20678;-65
2023/03/22 08:52:19;;;;;;;1.35;1.10;;;17.00;56.70;;;;;;5053595;28;20171;-65
2023/03/22 08:54:45;;;;;;;2.50;1.27;;;17.00;56.70;;;;;;5053539;28;20178;-64
2023/03/22 08:57:12;;;;;;;3.47;1.58;;;17.00;56.70;;;;;;5053182;28;20185;-66
2023/03/22 08:59:38;;;;;;;2.13;1.40;;;17.00;56.70;;;;;;5053168;28;20182;-67
2023/03/22 09:02:03;;;;;;;2.83;1.23;;;17.00;56.70;;;;;;5053248;28;20240;-66
2023/03/22 09:04:29;;;;;;;3.10;1.13;;;17.00;56.70;;;;;;5052409;28;20171;-66
2023/03/22 09:06:55;;;;;;;3.53;1.48;;;17.10;56.80;;;;;;5053140;28;20175;-65
2023/03/22 09:09:21;;;;;;;2.55;1.20;;;17.10;56.70;;;;;;5053174;28;20281;-65
2023/03/22 09:11:46;;;;;;;2.88;1.30;;;17.10;56.60;;;;;;5052269;28;20167;-65
2023/03/22 09:14:12;;;;;;;4.22;1.30;;;17.10;56.70;;;;;;5053193;28;20183;-65
2023/03/22 09:16:37;;;;;;;1.85;1.30;;;17.10;56.70;;;;;;5053075;28;20652;-65
2023/03/22 09:19:03;;;;;;;1.85;1.30;;;17.10;56.70;;;;;;5051976;28;20752;-63
2023/03/22 09:21:28;;;;;;;1.80;1.13;;;17.10;56.70;;;;;;5053042;28;20556;-64
2023/03/22 09:23:54;;;;;;;1.30;1.02;;;17.10;56.70;;;;;;5052719;28;20171;-63
2023/03/22 09:26:21;;;;;;;2.55;1.20;;;17.20;56.70;;;;;;5051480;28;20637;-65
2023/03/22 09:28:47;;;;;;;1.90;1.40;;;17.20;56.60;;;;;;5052425;28;20178;-65
2023/03/22 09:31:12;;;;;;;3.13;1.42;;;17.20;56.70;;;;;;5053026;28;20179;-66
2023/03/22 09:33:40;;;;;;;1.90;1.55;;;17.20;56.60;;;;;;5052078;28;20266;-72
2023/03/22 09:36:06;;;;;;;1.33;1.20;;;17.20;56.80;;;;;;5052561;28;20209;-70
2023/03/22 09:38:32;;;;;;;2.53;1.27;;;17.20;56.70;;;;;;5052570;28;20171;-67
2023/03/22 09:41:05;;;;;;;3.40;1.55;;;17.20;56.90;;;;;;5051656;28;20190;-72
2023/03/22 09:43:50;;;;;;;3.67;1.40;;;17.20;57.00;;;;;;5053002;28;20182;-66
2023/03/22 09:46:35;;;;;;;3.47;1.30;;;17.10;57.20;;;;;;5035775;28;20236;-66
2023/03/22 09:49:02;;;;;;;3.10;1.13;;;17.10;57.10;;;;;;5051236;28;20302;-65
2023/03/22 09:51:46;;;;;;;2.55;1.52;;;17.10;57.10;;;;;;5034873;28;20281;-64
2023/03/22 09:54:16;;;;;;;2.25;1.30;;;17.10;57.20;;;;;;5052148;28;20175;-63
2023/03/22 09:56:41;;;;;;;2.63;1.27;;;17.10;57.20;;;;;;5052298;28;20175;-73
2023/03/22 09:59:17;;;;;;;2.88;1.42;;;17.00;57.20;;;;;;5051339;28;20205;-72
2023/03/22 10:01:59;;;;;;;2.08;1.35;;;17.00;57.60;;;;;;5033877;28;20578;-69
2023/03/22 10:05:00;;;;;;;3.92;1.33;;;17.00;57.60;;;;;;5051314;28;20191;-68
2023/03/22 10:07:38;;;;;;;4.22;1.80;;;17.00;57.50;;;;;;5039422;28;20187;-67
2023/03/22 10:10:19;;;;;;;4.38;1.65;;;16.90;57.60;;;;;;5050472;28;20713;-65
2023/03/22 10:12:48;;;;;;;3.58;1.52;;;16.90;58.20;;;;;;5034794;28;20183;-68
2023/03/22 10:15:23;;;;;;;3.55;1.35;;;16.90;57.70;;;;;;5051422;28;20208;-67
2023/03/22 10:17:51;;;;;;;3.65;1.60;;;16.90;57.60;;;;;;5050669;28;20174;-64
2023/03/22 10:20:35;;;;;;;4.28;1.20;;;16.90;57.60;;;;;;5050648;28;20257;-67
2023/03/22 10:23:01;;;;;;;3.50;1.50;;;16.90;57.90;;;;;;5050928;28;20184;-66
2023/03/22 10:25:37;;;;;;;2.22;1.40;;;16.90;57.70;;;;;;5034451;28;20175;-66
2023/03/22 10:28:20;;;;;;;3.55;1.42;;;16.90;57.80;;;;;;5034098;28;20174;-67
2023/03/22 10:30:49;;;;;;;3.22;1.48;;;16.80;57.60;;;;;;5050531;28;20627;-68
2023/03/22 10:33:40;;;;;;;2.75;1.38;;;16.80;57.50;;;;;;5034692;28;20636;-67
2023/03/22 10:36:09;;;;;;;4.03;1.30;;;16.80;58.40;;;;;;5046931;28;20175;-67
2023/03/22 10:38:38;;;;;;;4.18;1.27;;;16.80;57.50;;;;;;5052942;28;20183;-67
2023/03/22 10:41:05;;;;;;;3.30;1.65;;;16.70;57.50;;;;;;5054413;28;20197;-67
2023/03/22 10:43:35;;;;;;;3.75;1.38;;;16.70;57.60;;;;;;5055173;28;20641;-66
2023/03/22 10:46:02;;;;;;;2.05;1.27;;;16.70;57.60;;;;;;5038547;28;20179;-67
2023/03/22 10:48:31;;;;;;;5.57;1.27;;;16.70;57.40;;;;;;5056089;28;20179;-67
2023/03/22 10:50:57;;;;;;;3.13;1.60;;;16.70;57.40;;;;;;5053682;28;20242;-66
2023/03/22 10:53:29;;;;;;;6.90;1.60;;;16.70;57.40;;;;;;5054701;28;20676;-66
2023/03/22 10:55:54;;;;;;;3.65;1.45;;;16.70;57.50;;;;;;5055479;28;20202;-67
2023/03/22 10:58:21;;;;;;;3.20;1.30;;;16.70;57.50;;;;;;5055013;28;20249;-69
2023/03/22 11:00:48;;;;;;;1.45;1.23;;;16.70;57.40;;;;;;5055267;28;20682;-68
2023/03/22 11:03:36;;;;;;;2.90;1.52;;;16.60;57.40;;;;;;5055841;28;20187;-68
2023/03/22 11:06:05;;;;;;;2.63;1.45;;;16.70;57.40;;;;;;5055501;28;20198;-68
2023/03/22 11:08:48;;;;;;;2.72;1.27;;;16.70;57.40;;;;;;5055280;28;20279;-67
2023/03/22 11:11:22;;;;;;;3.20;1.30;;;16.70;57.30;;;;;;5054831;28;20662;-66
2023/03/22 11:13:52;;;;;;;1.42;0.98;;;16.60;57.30;;;;;;5054101;28;20171;-66
2023/03/22 11:16:19;;;;;;;2.08;1.40;;;16.60;57.30;;;;;;5053956;28;20711;-67
2023/03/22 11:18:44;;;;;;;2.88;1.35;;;16.60;57.30;;;;;;5052987;28;20179;-67
2023/03/22 11:21:10;;;;;;;4.10;1.40;;;16.70;57.30;;;;;;5055325;28;20171;-66
2023/03/22 11:23:37;;;;;;;3.75;1.40;;;16.60;57.30;;;;;;5037734;28;20229;-66
2023/03/22 11:26:09;;;;;;;3.40;1.40;;;16.60;57.30;;;;;;5036512;28;20203;-67
2023/03/22 11:28:39;;;;;;;4.28;1.83;;;16.60;57.30;;;;;;5055371;28;20218;-68
2023/03/22 11:31:18;;;;;;;6.53;1.20;;;16.60;57.30;;;;;;5054843;28;20218;-68
2023/03/22 11:34:05;;;;;;;3.78;1.17;;;16.60;57.30;;;;;;5052818;28;20259;-69
2023/03/22 11:36:30;;;;;;;2.85;1.25;;;16.60;57.60;;;;;;5053572;28;20704;-68
2023/03/22 11:39:00;;;;;;;1.70;1.05;;;16.60;57.30;;;;;;5036044;28;20175;-67
2023/03/22 11:41:28;;;;;;;5.05;1.27;;;16.60;57.30;;;;;;5054948;28;20175;-67
2023/03/22 11:43:55;;;;;;;4.07;1.33;;;16.60;57.30;;;;;;5054669;28;20175;-67
2023/03/22 11:46:21;;;;;;;1.65;1.05;;;16.60;57.40;;;;;;5036574;28;20553;-68
2023/03/22 11:48:48;;;;;;;2.80;1.40;;;16.60;57.40;;;;;;5053480;28;20713;-67
2023/03/22 11:51:28;;;;;;;2.38;1.42;;;16.60;57.40;;;;;;5052992;28;20193;-67
2023/03/22 11:54:07;;;;;;;3.47;1.20;;;16.50;57.40;;;;;;5036250;28;20171;-67
2023/03/22 11:56:32;;;;;;;3.10;1.20;;;16.50;57.30;;;;;;5054573;28;20183;-67
2023/03/22 11:59:02;;;;;;;1.90;1.10;;;16.60;57.40;;;;;;5053074;28;20619;-68
2023/03/22 12:01:36;;;;;;;2.45;1.48;;;16.60;57.40;;;;;;5052809;28;20236;-69
2023/03/22 12:04:03;;;;;;;2.03;1.23;;;16.50;57.30;;;;;;5053083;28;20187;-68
2023/03/22 12:06:32;;;;;;;2.75;1.20;;;16.50;57.40;;;;;;5053384;28;20175;-68
2023/03/22 12:08:59;;;;;;;1.63;1.17;;;16.50;57.30;;;;;;5035596;28;20492;-67
2023/03/22 12:11:33;;;;;;;1.48;1.08;;;16.50;58.00;;;;;;5053413;28;20465;-67
2023/03/22 12:14:02;;;;;;;2.97;1.35;;;16.50;57.30;;;;;;5052325;28;20175;-65
2023/03/22 12:16:30;;;;;;;4.88;1.40;;;16.60;57.40;;;;;;5054663;28;20183;-65
2023/03/22 12:19:18;;;;;;;3.42;1.10;;;16.50;57.40;;;;;;5053170;28;20227;-66
2023/03/22 12:21:44;;;;;;;1.95;1.45;;;16.50;57.30;;;;;;5053649;28;20324;-64
2023/03/22 12:24:25;;;;;;;3.20;1.30;;;16.50;57.30;;;;;;5036892;28;20665;-66
2023/03/22 12:26:51;;;;;;;4.30;1.42;;;16.50;57.30;;;;;;5053358;28;20525;-67
2023/03/22 12:29:17;;;;;;;1.33;1.00;;;16.50;57.40;;;;;;5053678;28;20564;-67
2023/03/22 12:31:49;;;;;;;2.83;1.23;;;16.50;57.40;;;;;;5052978;28;20175;-68
2023/03/22 12:34:17;;;;;;;3.03;1.17;;;16.50;57.40;;;;;;5037728;28;20167;-69
2023/03/22 12:36:48;;;;;;;2.45;1.35;;;16.50;57.40;;;;;;5052421;28;20190;-67
2023/03/22 12:39:37;;;;;;;2.35;1.00;;;16.40;57.40;;;;;;5053269;28;20175;-67
2023/03/22 12:42:29;;;;;;;2.63;1.13;;;16.40;57.40;;;;;;5052155;28;20179;-67
2023/03/22 12:45:01;;;;;;;3.75;1.60;;;16.40;57.40;;;;;;5053185;28;20228;-67
2023/03/22 12:47:29;;;;;;;2.70;1.27;;;16.40;57.40;;;;;;5036827;28;20179;-67
2023/03/22 12:50:11;;;;;;;2.97;1.63;;;16.40;57.40;;;;;;5035593;28;20294;-67
2023/03/22 12:52:50;;;;;;;3.05;1.15;;;16.40;57.40;;;;;;5052941;28;20174;-66
2023/03/22 12:55:20;;;;;;;4.03;1.25;;;16.40;57.50;;;;;;5054353;28;20179;-67
2023/03/22 12:57:50;;;;;;;3.13;1.13;;;16.40;57.40;;;;;;5052160;28;20179;-67